Anchorage, AK

12:39 AM AKST on February 11, 2016 (GMT -0900)
Merrill | | Change Station
CLOSE
Current Station
Airport
Location: Anchorage Merrill,
Elevation: 135 ft
Nearby Weather Stations

Elev 135 ft 61.22 °N, 149.85 °W | Updated 46 minutes ago

Overcast
Overcast
29 °F
Feels Like 25 °F
N
4
Wind Variable Wind from North

Today
High -- | Low -- °F
--% Chance of Precip.
Yesterday
High -- | Low -- °F
Precip. -- in
Pressure 29.51 in
Visibility 10.0 miles
Clouds Mostly Cloudy 12000 ft
Overcast 20000 ft
Windchill 25 °F
Dew Point 17 °F
Humidity 61%
Rainfall 0.00 in
Snow Depth Not available.
8:54 AM 5:34 PM
Waxing Crescent, 10% visible
METAR PAMR 110853Z 01003KT 10SM BKN120 OVC200 M02/M08 A2950 RMK AO2 SLP991 T10171083 400171094 58004
Pressure 29.51 in
Visibility 10.0 miles
Clouds Mostly Cloudy 12000 ft
Overcast 20000 ft
Windchill 25 °F
Dew Point 17 °F
Humidity 61%
Rainfall 0.00 in
Snow Depth Not available.
8:54 AM 5:34 PM
Waxing Crescent, 10% visible
METAR PAMR 110853Z 01003KT 10SM BKN120 OVC200 M02/M08 A2950 RMK AO2 SLP991 T10171083 400171094 58004

10-Day Weather Forecast

Almanac

Astronomy

Feb. 11, 2016 Rise Set
Actual Time
Civil Twilight
Nautical Twilight
Astronomical Twilight
Moon
Length of Visible Light
Length of Day
Tomorrow will be .
, % of the Moon is Illuminated

Today's Extremes

State Highs State Lows

Community

WunderPhotos

Upload Photos

1,892,030 photos uploaded!

WunderBlog® & News

Nearby

Air Quality

  Air Quality AQ Index Pollutant
Not available.

Snow Depth

Station Depth Elevation

Earthquake Activity

City Distance Mag. Time & Date
Minimum magnitude displayed is 2.5.

Coastal Water Temperatures

Place Temperature

Stations

Nearby Weather Stations

Station Location Temp. Windchill Dew Point Humidity Wind Precip. Elev Updated Type
                   

Watches & Warnings

There are currently no watches in effect.